Weather reports worldwide

Advertisment
Zugspitze, Germany (10961): temperature & dewpoint: 13.12.2018 05:00:00 - 19.12.2018 05:00:00 (CET)Zugspitze, Germany (10961): wind speed & gusts: 13.12.2018 05:00:00 - 19.12.2018 05:00:00 (CET)Zugspitze, Germany (10961): wind direction: 13.12.2018 05:00:00 - 19.12.2018 05:00:00 (CET)Zugspitze, Germany (10961): visibility: 13.12.2018 05:00:00 - 19.12.2018 05:00:00 (CET)Zugspitze, Germany (10961): sunshine duration: 13.12.2018 05:00:00 - 19.12.2018 05:00:00 (CET)
Date & Time tt [°C] td [°C] ff [km/h] ff [kn] fx [km/h] fx [kn] dd vv [km] sd [min]
19.12.2018 05:00:00 -4,9 -14,0 19 10 40 22 W 75 0
19.12.2018 04:00:00 -5,5 -14,7 24 13 39 21 WSW 75 0
19.12.2018 03:00:00 -5,4 -15,3 23 13 44 24 WSW 75 0
19.12.2018 02:00:00 -4,7 -14,0 20 11 47 26 WSW 75 0
19.12.2018 01:00:00 -4,8 -15,0 38 20 49 27 WSW 25 0
19.12.2018 00:00:00 -4,9 -15,1 33 18 46 25 WSW 75 0
18.12.2018 23:00:00 -5,3 -17,3 26 14 37 20 WSW 75 0
18.12.2018 22:00:00 -4,8 -16,1 24 13 30 16 WSW 75 0
18.12.2018 21:00:00 -4,8 -16,8 16 9 27 15 WSW 75 0
18.12.2018 20:00:00 -5,2 -13,7 21 12 30 16 WSW 75 0
18.12.2018 19:00:00 -6,1 -17,3 15 8 32 18 W 75 0
18.12.2018 18:00:00 -6,6 -19,0 19 10 34 18 WSW 75 0
18.12.2018 17:00:00 -6,9 -22,8 25 14 35 19 WSW 75 14
18.12.2018 16:00:00 -7,3 -17,9 13 7 26 14 WNW 75 49
18.12.2018 15:00:00 -7,0 -18,9 16 8 32 18 NNW 75 60
18.12.2018 14:00:00 -7,8 -22,7 26 14 33 18 SW 65 60
18.12.2018 13:00:00 -9,3 -19,5 16 9 32 17 W 75 60
18.12.2018 12:00:00 -9,1 -21,2 22 12 34 18 WSW 75 60
18.12.2018 11:00:00 -9,6 -21,0 18 10 24 13 WSW 67 58
18.12.2018 10:00:00 -10,1 -20,4 18 10 21 11 WSW 75 60
18.12.2018 09:00:00 -11,8 -18,9 13 7 22 12 WNW 75 50
18.12.2018 08:00:00 -12,6 -19,4 19 11 25 13 NNW 75 0
18.12.2018 07:00:00 -12,8 -19,2 11 6 26 14 NNW 75 0
18.12.2018 06:00:00 -13,9 -17,3 14 8 26 14 NW 75 0
18.12.2018 05:00:00 -13,6 -15,9 21 12 27 14 WSW 75 0
18.12.2018 04:00:00 -13,7 -15,8 18 10 24 13 SW 75 0
18.12.2018 03:00:00 -13,7 -15,6 14 8 25 14 W 75 0
18.12.2018 02:00:00 -13,7 -15,0 16 9 29 16 W 75 0
18.12.2018 01:00:00 -13,9 -15,6 21 12 34 19 WSW 75 0
18.12.2018 00:00:00 -13,6 -14,9 19 11 37 20 W 0,1 0
17.12.2018 23:00:00 -12,9 -14,1 20 11 42 23 W 0,1 0
17.12.2018 22:00:00 -12,4 -13,6 18 10 37 20 NW 0,1 0
17.12.2018 21:00:00 -12,1 -13,4 21 12 35 19 NW 0,1 0
17.12.2018 20:00:00 -11,6 -13,1 16 9 40 22 NW 0,1 0
17.12.2018 19:00:00 -11,9 -13,4 16 9 35 19 WNW 0,1 0
17.12.2018 18:00:00 -12,1 -13,6 19 10 41 22 NW 0,1 0
17.12.2018 17:00:00 -12,3 -13,8 23 12 43 23 WNW 0,1 0
17.12.2018 16:00:00 -12,2 -13,8 21 12 49 26 WNW 0,1 0
17.12.2018 15:00:00 -12,0 -13,5 21 11 42 23 W 0,1 1
17.12.2018 14:00:00 -11,9 -13,3 20 11 46 25 WNW 0,1 0
17.12.2018 13:00:00 -11,8 -13,4 24 13 44 24 NW 0,1 2
17.12.2018 12:00:00 -12,0 -13,6 24 13 48 26 W 0,1 16
17.12.2018 11:00:00 -12,4 -14,0 21 11 35 19 W 0,1 13
17.12.2018 10:00:00 -12,0 -13,4 16 9 37 20 WNW 0,1 0
17.12.2018 09:00:00 -12,0 -13,4 19 11 35 19 W 0,1 0
17.12.2018 08:00:00 -12,0 -13,5 22 12 34 18 W 0,1 0
17.12.2018 07:00:00 -11,9 -13,3 28 15 36 20 W 0,2 0
17.12.2018 06:00:00 -12,5 -14,6 25 13 28 15 W 75 0
17.12.2018 05:00:00 -13,1 -16,5 17 9 25 14 WNW 75 0
17.12.2018 04:00:00 -13,0 -17,3 17 9 25 13 NW 75 0
17.12.2018 03:00:00 -13,1 -16,3 17 9 23 13 WNW 75 0
17.12.2018 02:00:00 -13,1 -16,1 20 11 27 15 W 75 0
17.12.2018 01:00:00 -13,2 -16,8 20 11 29 16 SW 75 0
17.12.2018 00:00:00 -13,3 -16,2 27 14 38 20 WSW 75 0
16.12.2018 23:00:00 -13,3 -15,4 26 14 35 19 SW 75 0
16.12.2018 22:00:00 -12,2 -13,5 13 7 33 18 W 75 0
16.12.2018 21:00:00 -11,7 -12,8 13 7 39 21 WNW 75 0
16.12.2018 20:00:00 -11,4 -12,4 16 9 42 23 W 33 0
16.12.2018 19:00:00 -11,0 -11,9 17 9 56 30 WNW 47 0
16.12.2018 18:00:00 -10,4 -11,5 25 14 49 26 WNW 0,1 0
16.12.2018 17:00:00 -10,0 -10,8 23 13 52 28 WNW 0,1 0
16.12.2018 16:00:00 -9,7 -10,7 33 18 58 31 WSW 0,1 0
16.12.2018 15:00:00 -9,3 -10,1 23 12 52 28 WSW 0,1 0
16.12.2018 14:00:00 -9,0 -10,0 31 17 73 39 WSW 0,1 0
16.12.2018 13:00:00 -8,9 -10,0 27 14 80 43 WNW 0,1 0
16.12.2018 12:00:00 -8,6 -9,6 32 17 72 39 W 0,1 0
16.12.2018 11:00:00 -8,3 -9,3 29 16 66 36 WNW 0,1 0
16.12.2018 10:00:00 -7,9 -8,9 34 19 81 44 W 0,1 0
16.12.2018 09:00:00 -8,2 -9,2 36 19 79 42 WNW 0,4 0
16.12.2018 08:00:00 -8,0 -9,1 36 20 87 47 W 0,2 0
16.12.2018 07:00:00 -8,7 -9,9 33 18 59 32 WSW 0,2 0
16.12.2018 06:00:00 -9,3 -10,8 26 14 44 24 WSW 1,4 0
16.12.2018 05:00:00 -10,4 -23,3 31 17 50 27 WSW 75 0
16.12.2018 04:00:00 -12,0 -24,8 28 15 44 24 WSW 68 0
16.12.2018 03:00:00 -12,6 -25,8 21 11 42 23 WSW 75 0
16.12.2018 02:00:00 -13,0 -25,6 14 8 37 20 W 75 0
16.12.2018 01:00:00 -14,0 -22,7 18 10 37 20 W 75 0
16.12.2018 00:00:00 -13,9 -22,0 22 12 31 17 NW 57 0
15.12.2018 23:00:00 -13,9 -20,5 17 9 25 13 NNW 75 0
15.12.2018 22:00:00 -13,9 -18,2 19 10 26 14 NNW 75 0
15.12.2018 21:00:00 -14,2 -18,2 18 10 29 16 NNW 75 0
15.12.2018 20:00:00 -13,9 -18,6 16 9 29 16 N 75 0
15.12.2018 19:00:00 -14,3 -18,6 14 7 29 16 NNW 75 0
15.12.2018 18:00:00 -14,7 -19,5 23 12 29 16 NNW 75 0
15.12.2018 17:00:00 -15,2 -19,6 24 13 27 14 NNW 75 32
15.12.2018 16:00:00 -15,2 -18,7 7 4 18 10 NNW 75 60
15.12.2018 15:00:00 -15,2 -18,7 9 5 15 8 NNW 75 60
15.12.2018 14:00:00 -14,8 -18,6 9 5 14 8 NNW 74 60
15.12.2018 13:00:00 -15,0 -19,1 10 6 16 8 NNW 75 60
15.12.2018 12:00:00 -14,8 -19,0 9 5 14 8 NW 66 60
15.12.2018 11:00:00 -15,8 -25,0 8 4 14 8 NW 73 60
15.12.2018 10:00:00 -16,3 -24,3 9 5 17 9 NNW 75 60
15.12.2018 09:00:00 -16,5 -20,6 11 6 24 13 NNW 75 50
15.12.2018 08:00:00 -17,2 -20,1 14 7 21 12 NNW 75 0
15.12.2018 07:00:00 -17,3 -19,7 11 6 23 13 N 75 0
15.12.2018 06:00:00 -17,0 -19,0 16 9 27 14 NNW 6 0
15.12.2018 05:00:00 -16,6 -18,8 9 5 15 8 NNW 75 0
15.12.2018 04:00:00 -16,5 -19,7 9 5 16 9 NNW 75 0
15.12.2018 03:00:00 -16,7 -20,1 9 5 19 10 NNW 75 0
15.12.2018 02:00:00 -16,8 -20,4 13 7 19 11 NNW 75 0
15.12.2018 01:00:00 -17,7 -23,0 11 6 27 14 N 75 0
15.12.2018 00:00:00 -17,7 -22,8 16 9 29 16 NNW 75 0
14.12.2018 23:00:00 -17,6 -23,3 12 7 22 12 NNW 75 0
14.12.2018 22:00:00 -17,4 -23,2 16 9 32 17 NNW 75 0
14.12.2018 21:00:00 -17,3 -23,3 27 14 33 18 NNW 75 0
14.12.2018 20:00:00 -17,4 -26,2 24 13 31 17 NNW 75 0
14.12.2018 19:00:00 -17,5 -24,0 22 12 30 16 NW 75 0
14.12.2018 18:00:00 -17,2 -26,2 18 10 26 14 NW 75 0
14.12.2018 17:00:00 -16,9 -24,4 17 9 23 12 NW 75 35
14.12.2018 16:00:00 -16,3 -26,8 14 8 23 12 NNW 75 60
14.12.2018 15:00:00 -15,7 -26,8 11 6 18 10 NNW 75 60
14.12.2018 14:00:00 -15,6 -25,2 8 5 18 10 NW - 60
14.12.2018 13:00:00 -15,0 -24,3 11 6 13 7 W - 60
14.12.2018 12:00:00 -15,1 -23,5 5 3 9 5 N 75 60
14.12.2018 11:00:00 -15,6 -24,5 5 3 11 6 N 75 60
14.12.2018 10:00:00 -16,1 -24,3 8 5 23 13 N 75 60
14.12.2018 09:00:00 -16,1 -23,6 20 11 26 14 NNW 75 53
14.12.2018 08:00:00 -16,1 -20,8 18 10 27 15 NNW 75 0
14.12.2018 07:00:00 -16,3 -24,7 18 10 23 13 NW 75 0
14.12.2018 06:00:00 -15,6 -23,0 14 8 19 10 NNW 75 0
14.12.2018 05:00:00 -15,5 -22,4 10 6 14 8 NNW 75 0
14.12.2018 04:00:00 -15,7 -25,0 9 5 13 7 NNW 75 0
14.12.2018 03:00:00 -15,8 -24,1 9 5 14 7 NNW 75 0
14.12.2018 02:00:00 -15,7 -23,3 10 5 12 7 NNW 75 0
14.12.2018 01:00:00 -16,0 -24,9 4 2 9 5 NNW 75 0
14.12.2018 00:00:00 -15,5 -25,8 3 1 10 5 SSE 75 0
13.12.2018 23:00:00 -16,0 -21,3 10 5 17 9 W 75 0
13.12.2018 22:00:00 -16,0 -19,2 14 7 18 10 W 75 0
13.12.2018 21:00:00 -16,3 -18,8 13 7 21 11 W 75 0
13.12.2018 20:00:00 -16,4 -20,4 12 7 19 10 W 75 0
13.12.2018 19:00:00 -16,4 -21,3 7 4 15 8 WSW 75 0
13.12.2018 18:00:00 -16,3 -23,1 11 6 23 12 WSW 75 0
13.12.2018 17:00:00 -16,3 -24,0 18 10 27 15 WSW 75 36
13.12.2018 16:00:00 -15,6 -25,4 22 12 29 16 SW 75 60
13.12.2018 15:00:00 -15,6 -24,4 18 10 30 16 SW 75 59
13.12.2018 14:00:00 -15,4 -23,6 24 13 35 19 SSW 75 60
13.12.2018 13:00:00 -15,5 -23,5 30 16 41 22 S 46 60
13.12.2018 12:00:00 -16,0 -22,9 33 18 42 23 SSE 56 60
13.12.2018 11:00:00 -16,7 -23,0 30 16 39 21 SSE 51 60
13.12.2018 10:00:00 -17,1 -24,6 30 16 47 26 S 32 60
13.12.2018 09:00:00 -17,3 -23,2 31 17 42 23 S 19 52
13.12.2018 08:00:00 -18,1 -23,5 31 17 42 23 SSE 47 0
13.12.2018 07:00:00 -17,8 -23,9 25 14 38 21 S 64 0
13.12.2018 06:00:00 -17,8 -23,3 27 14 41 22 SSW 75 0
13.12.2018 05:00:00 -18,0 -22,5 27 15 41 22 S 75 0

tt = temperature
td = dewpoint
ff = wind speed
fx = gusts
dd = wind direction
vv = visibility
sd = sunshine duration

Next stations